sensor_id;sensor_type;location;lat;lon;timestamp;pressure;altitude;pressure_sealevel;temperature;humidity
60049;BME280;45925;45.544;6.756;2022-08-18T00:00:39;87109.50;;;14.06;76.06
60049;BME280;45925;45.544;6.756;2022-08-18T00:05:40;87104.25;;;14.34;79.33
60049;BME280;45925;45.544;6.756;2022-08-18T00:10:41;87126.44;;;13.75;85.87
60049;BME280;45925;45.544;6.756;2022-08-18T00:15:42;87130.47;;;14.32;82.56
60049;BME280;45925;45.544;6.756;2022-08-18T00:20:42;87143.31;;;13.85;85.64
60049;BME280;45925;45.544;6.756;2022-08-18T00:25:43;87120.97;;;13.92;85.50
60049;BME280;45925;45.544;6.756;2022-08-18T00:30:44;87102.97;;;13.96;85.17
60049;BME280;45925;45.544;6.756;2022-08-18T00:35:45;87078.22;;;14.27;82.81
60049;BME280;45925;45.544;6.756;2022-08-18T00:40:47;87043.66;;;14.51;81.89
60049;BME280;45925;45.544;6.756;2022-08-18T00:45:49;87020.53;;;14.74;76.10
60049;BME280;45925;45.544;6.756;2022-08-18T00:50:58;87022.28;;;14.70;76.27
60049;BME280;45925;45.544;6.756;2022-08-18T00:56:10;87009.56;;;14.81;76.87
60049;BME280;45925;45.544;6.756;2022-08-18T01:01:12;87019.47;;;13.48;79.98
60049;BME280;45925;45.544;6.756;2022-08-18T01:06:27;87003.81;;;13.56;86.88
60049;BME280;45925;45.544;6.756;2022-08-18T01:11:32;86936.44;;;14.29;79.71
60049;BME280;45925;45.544;6.756;2022-08-18T01:16:33;86914.91;;;14.44;77.55
60049;BME280;45925;45.544;6.756;2022-08-18T01:21:59;86903.78;;;14.40;76.17
60049;BME280;45925;45.544;6.756;2022-08-18T01:27:01;86872.00;;;13.69;77.82
60049;BME280;45925;45.544;6.756;2022-08-18T01:32:02;86890.31;;;13.64;77.09
60049;BME280;45925;45.544;6.756;2022-08-18T01:37:03;86878.72;;;14.25;76.08
60049;BME280;45925;45.544;6.756;2022-08-18T01:42:05;86892.53;;;13.97;75.52
60049;BME280;45925;45.544;6.756;2022-08-18T01:47:05;86897.66;;;14.13;75.83
60049;BME280;45925;45.544;6.756;2022-08-18T01:52:06;86909.38;;;14.07;76.10
60049;BME280;45925;45.544;6.756;2022-08-18T01:57:07;86900.53;;;13.92;75.32
60049;BME280;45925;45.544;6.756;2022-08-18T02:02:15;86880.53;;;13.89;76.90
60049;BME280;45925;45.544;6.756;2022-08-18T02:07:17;86878.41;;;13.59;77.58
60049;BME280;45925;45.544;6.756;2022-08-18T02:12:18;86876.75;;;13.67;76.42
60049;BME280;45925;45.544;6.756;2022-08-18T02:17:19;86856.72;;;13.80;75.25
60049;BME280;45925;45.544;6.756;2022-08-18T02:22:21;86863.50;;;13.68;74.68
60049;BME280;45925;45.544;6.756;2022-08-18T02:27:22;86865.94;;;13.45;75.06
60049;BME280;45925;45.544;6.756;2022-08-18T02:32:23;86861.66;;;13.69;75.13
60049;BME280;45925;45.544;6.756;2022-08-18T02:37:23;86872.44;;;13.39;75.89
60049;BME280;45925;45.544;6.756;2022-08-18T02:42:24;86877.56;;;13.71;74.09
60049;BME280;45925;45.544;6.756;2022-08-18T02:47:25;86889.59;;;13.63;74.62
60049;BME280;45925;45.544;6.756;2022-08-18T02:52:25;86884.50;;;13.51;74.35
60049;BME280;45925;45.544;6.756;2022-08-18T02:57:35;86887.75;;;13.48;74.63
60049;BME280;45925;45.544;6.756;2022-08-18T03:02:36;86891.75;;;13.29;72.72
60049;BME280;45925;45.544;6.756;2022-08-18T03:07:37;86900.81;;;12.79;78.42
60049;BME280;45925;45.544;6.756;2022-08-18T03:12:41;86892.47;;;13.14;74.82
60049;BME280;45925;45.544;6.756;2022-08-18T03:17:41;86887.88;;;12.91;76.17
60049;BME280;45925;45.544;6.756;2022-08-18T03:22:42;86890.22;;;12.96;76.45
60049;BME280;45925;45.544;6.756;2022-08-18T03:27:42;86889.56;;;12.71;77.00
60049;BME280;45925;45.544;6.756;2022-08-18T03:32:43;86884.53;;;12.62;76.22
60049;BME280;45925;45.544;6.756;2022-08-18T03:37:43;86880.75;;;12.72;75.55
60049;BME280;45925;45.544;6.756;2022-08-18T03:42:44;86879.69;;;12.89;75.07
60049;BME280;45925;45.544;6.756;2022-08-18T03:47:45;86871.47;;;12.83;75.00
60049;BME280;45925;45.544;6.756;2022-08-18T03:52:45;86881.13;;;12.86;74.46
60049;BME280;45925;45.544;6.756;2022-08-18T03:57:48;86873.22;;;12.95;73.44
60049;BME280;45925;45.544;6.756;2022-08-18T04:02:51;86881.41;;;12.41;75.64
60049;BME280;45925;45.544;6.756;2022-08-18T04:07:52;86882.81;;;12.38;75.80
60049;BME280;45925;45.544;6.756;2022-08-18T04:12:53;86887.72;;;12.72;74.42
60049;BME280;45925;45.544;6.756;2022-08-18T04:17:58;86886.06;;;11.94;77.80
60049;BME280;45925;45.544;6.756;2022-08-18T04:22:58;86867.34;;;12.38;74.99
60049;BME280;45925;45.544;6.756;2022-08-18T04:28:00;86869.34;;;12.45;74.28
60049;BME280;45925;45.544;6.756;2022-08-18T04:33:00;86864.47;;;12.27;75.33
60049;BME280;45925;45.544;6.756;2022-08-18T04:38:01;86851.59;;;12.56;74.08
60049;BME280;45925;45.544;6.756;2022-08-18T04:43:02;86863.16;;;12.33;75.18
60049;BME280;45925;45.544;6.756;2022-08-18T04:48:03;86855.25;;;12.26;75.23
60049;BME280;45925;45.544;6.756;2022-08-18T04:53:04;86851.47;;;12.36;73.75
60049;BME280;45925;45.544;6.756;2022-08-18T04:58:23;86841.44;;;12.47;73.13
60049;BME280;45925;45.544;6.756;2022-08-18T05:03:24;86840.81;;;12.38;74.43
60049;BME280;45925;45.544;6.756;2022-08-18T05:08:26;86829.84;;;12.41;75.37
60049;BME280;45925;45.544;6.756;2022-08-18T05:13:26;86836.41;;;12.38;74.72
60049;BME280;45925;45.544;6.756;2022-08-18T05:18:27;86862.09;;;12.35;75.17
60049;BME280;45925;45.544;6.756;2022-08-18T05:23:28;86871.03;;;12.37;75.63
60049;BME280;45925;45.544;6.756;2022-08-18T05:28:30;86871.41;;;12.52;75.17
60049;BME280;45925;45.544;6.756;2022-08-18T05:33:30;86856.75;;;12.56;75.53
60049;BME280;45925;45.544;6.756;2022-08-18T05:38:50;86863.91;;;12.62;75.23
60049;BME280;45925;45.544;6.756;2022-08-18T05:43:53;86863.09;;;12.58;76.09
60049;BME280;45925;45.544;6.756;2022-08-18T05:48:54;86876.25;;;12.41;75.82
60049;BME280;45925;45.544;6.756;2022-08-18T05:53:54;86895.44;;;12.56;75.74
60049;BME280;45925;45.544;6.756;2022-08-18T05:59:19;86879.78;;;12.08;77.03
60049;BME280;45925;45.544;6.756;2022-08-18T06:04:28;86870.63;;;12.51;74.32
60049;BME280;45925;45.544;6.756;2022-08-18T06:09:49;86888.19;;;12.45;75.82
60049;BME280;45925;45.544;6.756;2022-08-18T06:14:50;86886.66;;;12.44;76.93
60049;BME280;45925;45.544;6.756;2022-08-18T06:20:16;86879.38;;;12.62;75.86
60049;BME280;45925;45.544;6.756;2022-08-18T06:25:25;86869.78;;;12.75;76.29
60049;BME280;45925;45.544;6.756;2022-08-18T06:30:42;86858.22;;;12.85;74.95
60049;BME280;45925;45.544;6.756;2022-08-18T06:35:51;86856.13;;;12.75;76.53
60049;BME280;45925;45.544;6.756;2022-08-18T06:41:09;86863.53;;;12.76;76.75
60049;BME280;45925;45.544;6.756;2022-08-18T06:46:16;86846.25;;;12.48;79.87
60049;BME280;45925;45.544;6.756;2022-08-18T06:51:20;86848.72;;;12.89;77.94
60049;BME280;45925;45.544;6.756;2022-08-18T07:01:23;86809.03;;;13.10;74.92
60049;BME280;45925;45.544;6.756;2022-08-18T07:06:28;86796.97;;;13.14;74.66
60049;BME280;45925;45.544;6.756;2022-08-18T07:11:31;86793.22;;;13.43;71.85
60049;BME280;45925;45.544;6.756;2022-08-18T07:16:33;86793.06;;;13.36;73.04
60049;BME280;45925;45.544;6.756;2022-08-18T07:21:36;86796.44;;;13.56;72.29
60049;BME280;45925;45.544;6.756;2022-08-18T07:32:16;86794.13;;;13.19;78.44
60049;BME280;45925;45.544;6.756;2022-08-18T07:37:23;86786.31;;;12.99;79.16
60049;BME280;45925;45.544;6.756;2022-08-18T07:47:50;86795.97;;;12.86;78.88
60049;BME280;45925;45.544;6.756;2022-08-18T07:53:17;86797.69;;;13.30;78.07
60049;BME280;45925;45.544;6.756;2022-08-18T07:58:24;86794.34;;;13.62;78.07
60049;BME280;45925;45.544;6.756;2022-08-18T08:29:48;86784.63;;;13.74;80.54
60049;BME280;45925;45.544;6.756;2022-08-18T08:34:58;86780.03;;;14.03;78.96
60049;BME280;45925;45.544;6.756;2022-08-18T08:40:12;86773.69;;;13.62;79.51
60049;BME280;45925;45.544;6.756;2022-08-18T08:45:20;86767.63;;;14.52;74.22
60049;BME280;45925;45.544;6.756;2022-08-18T08:50:28;86763.50;;;13.33;83.84
60049;BME280;45925;45.544;6.756;2022-08-18T08:55:34;86759.84;;;13.34;83.76
60049;BME280;45925;45.544;6.756;2022-08-18T09:00:37;86783.66;;;12.96;88.41
60049;BME280;45925;45.544;6.756;2022-08-18T09:27:44;86761.66;;;13.02;86.29
60049;BME280;45925;45.544;6.756;2022-08-18T09:32:55;86749.50;;;14.09;79.79
60049;BME280;45925;45.544;6.756;2022-08-18T09:38:04;86755.41;;;13.70;82.74
60049;BME280;45925;45.544;6.756;2022-08-18T09:43:56;86751.72;;;14.30;78.45
60049;BME280;45925;45.544;6.756;2022-08-18T09:49:30;86761.50;;;14.60;75.84
60049;BME280;45925;45.544;6.756;2022-08-18T10:21:19;86798.38;;;13.79;87.89
60049;BME280;45925;45.544;6.756;2022-08-18T10:36:57;86790.22;;;14.55;81.51
60049;BME280;45925;45.544;6.756;2022-08-18T10:47:23;86801.84;;;15.07;78.11
60049;BME280;45925;45.544;6.756;2022-08-18T10:58:41;86804.88;;;14.66;81.04
60049;BME280;45925;45.544;6.756;2022-08-18T11:03:35;86813.44;;;14.12;83.15
60049;BME280;45925;45.544;6.756;2022-08-18T11:08:45;86804.56;;;14.72;78.88
60049;BME280;45925;45.544;6.756;2022-08-18T11:14:26;86812.50;;;14.20;80.90
60049;BME280;45925;45.544;6.756;2022-08-18T11:19:22;86812.72;;;14.31;79.91
60049;BME280;45925;45.544;6.756;2022-08-18T11:24:29;86821.53;;;14.10;81.18
60049;BME280;45925;45.544;6.756;2022-08-18T11:39:45;86833.47;;;14.97;77.22
60049;BME280;45925;45.544;6.756;2022-08-18T11:44:48;86827.69;;;14.61;81.00
60049;BME280;45925;45.544;6.756;2022-08-18T11:50:04;86838.97;;;14.33;80.75
60049;BME280;45925;45.544;6.756;2022-08-18T11:55:18;86833.22;;;15.02;77.60
60049;BME280;45925;45.544;6.756;2022-08-18T12:05:49;86854.19;;;15.89;72.64
60049;BME280;45925;45.544;6.756;2022-08-18T12:11:01;86853.19;;;15.74;73.58
60049;BME280;45925;45.544;6.756;2022-08-18T12:16:29;86860.88;;;15.67;72.66
60049;BME280;45925;45.544;6.756;2022-08-18T12:21:30;86855.19;;;14.69;76.44
60049;BME280;45925;45.544;6.756;2022-08-18T12:26:31;86855.38;;;14.80;77.44
60049;BME280;45925;45.544;6.756;2022-08-18T12:31:33;86852.13;;;14.63;80.74
60049;BME280;45925;45.544;6.756;2022-08-18T12:36:34;86845.91;;;14.68;78.78
60049;BME280;45925;45.544;6.756;2022-08-18T12:41:34;86858.47;;;14.66;79.24
60049;BME280;45925;45.544;6.756;2022-08-18T12:46:35;86856.66;;;15.13;74.98
60049;BME280;45925;45.544;6.756;2022-08-18T12:51:36;86843.06;;;15.89;72.03
60049;BME280;45925;45.544;6.756;2022-08-18T12:56:36;86840.41;;;15.12;74.04
60049;BME280;45925;45.544;6.756;2022-08-18T13:01:39;86847.47;;;15.15;73.70
60049;BME280;45925;45.544;6.756;2022-08-18T13:06:53;86838.84;;;15.31;74.20
60049;BME280;45925;45.544;6.756;2022-08-18T13:11:54;86841.31;;;15.00;73.93
60049;BME280;45925;45.544;6.756;2022-08-18T13:16:55;86836.06;;;14.97;74.22
60049;BME280;45925;45.544;6.756;2022-08-18T13:21:56;86840.16;;;15.67;72.75
60049;BME280;45925;45.544;6.756;2022-08-18T13:26:57;86833.94;;;15.49;73.26
60049;BME280;45925;45.544;6.756;2022-08-18T13:31:57;86842.56;;;16.37;70.00
60049;BME280;45925;45.544;6.756;2022-08-18T13:36:58;86851.72;;;15.73;72.37
60049;BME280;45925;45.544;6.756;2022-08-18T13:42:00;86849.66;;;15.60;75.10
60049;BME280;45925;45.544;6.756;2022-08-18T13:47:01;86851.03;;;15.07;78.64
60049;BME280;45925;45.544;6.756;2022-08-18T13:52:02;86836.56;;;15.52;75.53
60049;BME280;45925;45.544;6.756;2022-08-18T13:57:04;86833.31;;;16.09;71.92
60049;BME280;45925;45.544;6.756;2022-08-18T14:02:08;86835.03;;;15.48;75.51
60049;BME280;45925;45.544;6.756;2022-08-18T14:07:08;86846.72;;;15.61;74.97
60049;BME280;45925;45.544;6.756;2022-08-18T14:12:16;86838.91;;;15.57;72.51
60049;BME280;45925;45.544;6.756;2022-08-18T14:17:20;86832.13;;;16.33;72.09
60049;BME280;45925;45.544;6.756;2022-08-18T14:22:21;86837.91;;;15.66;76.02
60049;BME280;45925;45.544;6.756;2022-08-18T14:27:40;86833.88;;;15.45;77.35
60049;BME280;45925;45.544;6.756;2022-08-18T14:32:42;86841.50;;;15.84;74.36
60049;BME280;45925;45.544;6.756;2022-08-18T14:37:42;86840.66;;;15.53;77.22
60049;BME280;45925;45.544;6.756;2022-08-18T14:42:43;86830.00;;;16.08;73.74
60049;BME280;45925;45.544;6.756;2022-08-18T14:47:44;86835.00;;;15.71;75.03
60049;BME280;45925;45.544;6.756;2022-08-18T14:52:46;86825.84;;;16.04;73.63
60049;BME280;45925;45.544;6.756;2022-08-18T14:57:47;86824.19;;;15.15;77.70
60049;BME280;45925;45.544;6.756;2022-08-18T15:02:49;86829.25;;;15.81;76.38
60049;BME280;45925;45.544;6.756;2022-08-18T15:07:51;86821.38;;;15.51;73.68
60049;BME280;45925;45.544;6.756;2022-08-18T15:12:52;86824.88;;;16.46;72.79
60049;BME280;45925;45.544;6.756;2022-08-18T15:17:52;86820.66;;;16.34;75.20
60049;BME280;45925;45.544;6.756;2022-08-18T15:22:53;86816.16;;;16.61;71.31
60049;BME280;45925;45.544;6.756;2022-08-18T15:28:23;86812.72;;;17.25;67.67
60049;BME280;45925;45.544;6.756;2022-08-18T15:33:25;86806.19;;;16.33;71.23
60049;BME280;45925;45.544;6.756;2022-08-18T15:38:27;86820.72;;;16.07;74.36
60049;BME280;45925;45.544;6.756;2022-08-18T15:43:29;86817.25;;;15.73;74.95
60049;BME280;45925;45.544;6.756;2022-08-18T15:48:31;86824.47;;;15.83;75.15
60049;BME280;45925;45.544;6.756;2022-08-18T15:53:32;86830.44;;;15.87;73.69
60049;BME280;45925;45.544;6.756;2022-08-18T15:58:32;86823.97;;;16.01;73.77
60049;BME280;45925;45.544;6.756;2022-08-18T16:03:33;86813.22;;;16.66;70.07
60049;BME280;45925;45.544;6.756;2022-08-18T16:08:33;86819.28;;;16.78;68.53
60049;BME280;45925;45.544;6.756;2022-08-18T16:13:34;86819.63;;;16.76;68.95
60049;BME280;45925;45.544;6.756;2022-08-18T16:18:35;86813.41;;;16.47;69.58
60049;BME280;45925;45.544;6.756;2022-08-18T16:23:42;86818.56;;;16.81;69.54
60049;BME280;45925;45.544;6.756;2022-08-18T16:28:45;86815.72;;;16.25;76.14
60049;BME280;45925;45.544;6.756;2022-08-18T16:33:46;86811.97;;;15.66;78.31
60049;BME280;45925;45.544;6.756;2022-08-18T16:38:46;86800.59;;;16.27;75.37
60049;BME280;45925;45.544;6.756;2022-08-18T16:43:47;86788.59;;;16.50;74.78
60049;BME280;45925;45.544;6.756;2022-08-18T16:48:48;86799.63;;;16.09;77.20
60049;BME280;45925;45.544;6.756;2022-08-18T16:53:49;86803.34;;;15.58;79.39
60049;BME280;45925;45.544;6.756;2022-08-18T16:58:52;86799.88;;;16.64;73.69
60049;BME280;45925;45.544;6.756;2022-08-18T17:04:16;86795.03;;;16.63;73.19
60049;BME280;45925;45.544;6.756;2022-08-18T17:09:18;86787.63;;;15.70;77.79
60049;BME280;45925;45.544;6.756;2022-08-18T17:14:21;86779.88;;;15.74;79.79
60049;BME280;45925;45.544;6.756;2022-08-18T17:19:25;86779.97;;;15.28;82.14
60049;BME280;45925;45.544;6.756;2022-08-18T17:24:26;86780.41;;;16.14;77.02
60049;BME280;45925;45.544;6.756;2022-08-18T17:29:34;86779.09;;;15.97;77.00
60049;BME280;45925;45.544;6.756;2022-08-18T17:34:38;86786.59;;;15.25;82.42
60049;BME280;45925;45.544;6.756;2022-08-18T17:40:04;86792.66;;;15.60;78.64
60049;BME280;45925;45.544;6.756;2022-08-18T17:45:09;86785.47;;;15.76;79.60
60049;BME280;45925;45.544;6.756;2022-08-18T17:50:34;86795.03;;;15.22;84.48
60049;BME280;45925;45.544;6.756;2022-08-18T17:56:09;86798.38;;;15.72;81.59
60049;BME280;45925;45.544;6.756;2022-08-18T18:01:11;86795.66;;;15.88;79.48
60049;BME280;45925;45.544;6.756;2022-08-18T18:06:30;86801.84;;;16.10;77.36
60049;BME280;45925;45.544;6.756;2022-08-18T18:11:41;86806.13;;;15.96;80.34
60049;BME280;45925;45.544;6.756;2022-08-18T18:16:42;86814.72;;;16.03;78.99
60049;BME280;45925;45.544;6.756;2022-08-18T18:21:42;86822.50;;;15.50;80.30
60049;BME280;45925;45.544;6.756;2022-08-18T18:26:45;86833.09;;;14.95;85.00
60049;BME280;45925;45.544;6.756;2022-08-18T18:36:51;86851.13;;;15.34;82.55
60049;BME280;45925;45.544;6.756;2022-08-18T18:41:53;86864.56;;;15.66;78.93
60049;BME280;45925;45.544;6.756;2022-08-18T18:47:09;86854.94;;;15.67;78.63
60049;BME280;45925;45.544;6.756;2022-08-18T18:52:21;86869.06;;;15.46;80.29
60049;BME280;45925;45.544;6.756;2022-08-18T18:57:34;86876.59;;;15.55;79.81
60049;BME280;45925;45.544;6.756;2022-08-18T19:08:44;86912.91;;;15.12;81.27
60049;BME280;45925;45.544;6.756;2022-08-18T19:13:57;86936.16;;;15.09;82.78
60049;BME280;45925;45.544;6.756;2022-08-18T19:19:28;86942.59;;;15.18;81.72
60049;BME280;45925;45.544;6.756;2022-08-18T19:24:33;86955.56;;;14.08;89.15
60049;BME280;45925;45.544;6.756;2022-08-18T19:29:41;86961.69;;;14.91;85.08
60049;BME280;45925;45.544;6.756;2022-08-18T19:34:45;86979.56;;;14.96;83.49
60049;BME280;45925;45.544;6.756;2022-08-18T19:56:16;87007.09;;;14.01;76.93
60049;BME280;45925;45.544;6.756;2022-08-18T20:01:09;87005.50;;;14.12;74.44
60049;BME280;45925;45.544;6.756;2022-08-18T20:17:20;87020.88;;;14.05;78.52
60049;BME280;45925;45.544;6.756;2022-08-18T20:32:37;86981.00;;;13.30;77.68
60049;BME280;45925;45.544;6.756;2022-08-18T20:37:37;86975.91;;;13.18;78.14
60049;BME280;45925;45.544;6.756;2022-08-18T20:42:43;86965.16;;;13.44;74.96
60049;BME280;45925;45.544;6.756;2022-08-18T20:48:09;86986.56;;;13.45;75.17
60049;BME280;45925;45.544;6.756;2022-08-18T20:53:42;86988.13;;;13.33;74.69
60049;BME280;45925;45.544;6.756;2022-08-18T20:58:59;86977.22;;;13.56;73.41
60049;BME280;45925;45.544;6.756;2022-08-18T21:04:03;86976.06;;;13.37;76.02
60049;BME280;45925;45.544;6.756;2022-08-18T21:09:04;86965.41;;;13.55;74.74
60049;BME280;45925;45.544;6.756;2022-08-18T21:14:05;86969.25;;;13.45;74.62
60049;BME280;45925;45.544;6.756;2022-08-18T21:19:10;86977.53;;;13.38;75.38
60049;BME280;45925;45.544;6.756;2022-08-18T21:24:40;86985.72;;;13.12;75.92
60049;BME280;45925;45.544;6.756;2022-08-18T21:29:42;87000.03;;;13.38;74.87
60049;BME280;45925;45.544;6.756;2022-08-18T21:34:49;87001.34;;;11.98;86.35
60049;BME280;45925;45.544;6.756;2022-08-18T21:39:53;87008.25;;;12.99;78.99
60049;BME280;45925;45.544;6.756;2022-08-18T21:44:56;87004.00;;;12.91;78.97
60049;BME280;45925;45.544;6.756;2022-08-18T21:50:17;87010.19;;;12.49;81.20
60049;BME280;45925;45.544;6.756;2022-08-18T21:55:28;87009.97;;;12.95;78.69
60049;BME280;45925;45.544;6.756;2022-08-18T22:00:33;87005.53;;;13.08;77.74
60049;BME280;45925;45.544;6.756;2022-08-18T22:05:39;87012.59;;;12.18;83.08
60049;BME280;45925;45.544;6.756;2022-08-18T22:10:41;87023.53;;;12.52;79.29
60049;BME280;45925;45.544;6.756;2022-08-18T22:16:24;87022.78;;;12.92;78.47
60049;BME280;45925;45.544;6.756;2022-08-18T22:21:36;87018.16;;;12.97;78.73
60049;BME280;45925;45.544;6.756;2022-08-18T22:26:38;87025.91;;;12.97;78.64
60049;BME280;45925;45.544;6.756;2022-08-18T22:31:48;87023.66;;;12.96;78.65
60049;BME280;45925;45.544;6.756;2022-08-18T22:36:55;87014.13;;;12.72;79.33
60049;BME280;45925;45.544;6.756;2022-08-18T22:42:01;87014.97;;;12.88;78.06
60049;BME280;45925;45.544;6.756;2022-08-18T22:47:02;87021.09;;;12.83;78.95
60049;BME280;45925;45.544;6.756;2022-08-18T22:52:07;87023.34;;;12.85;79.14
60049;BME280;45925;45.544;6.756;2022-08-18T22:57:11;87012.16;;;12.81;78.71
60049;BME280;45925;45.544;6.756;2022-08-18T23:02:13;87012.16;;;12.81;76.56
60049;BME280;45925;45.544;6.756;2022-08-18T23:07:15;86985.38;;;12.57;78.68
60049;BME280;45925;45.544;6.756;2022-08-18T23:12:21;86987.72;;;12.62;77.26
60049;BME280;45925;45.544;6.756;2022-08-18T23:17:22;86988.72;;;12.58;76.66
60049;BME280;45925;45.544;6.756;2022-08-18T23:22:23;86986.47;;;12.44;77.10
60049;BME280;45925;45.544;6.756;2022-08-18T23:27:23;86997.88;;;12.30;76.26
60049;BME280;45925;45.544;6.756;2022-08-18T23:32:25;87004.75;;;12.26;78.78
60049;BME280;45925;45.544;6.756;2022-08-18T23:37:25;86985.63;;;12.40;76.98
60049;BME280;45925;45.544;6.756;2022-08-18T23:42:26;86971.88;;;12.36;77.85
60049;BME280;45925;45.544;6.756;2022-08-18T23:47:26;86974.66;;;12.30;77.07
60049;BME280;45925;45.544;6.756;2022-08-18T23:52:28;86972.97;;;12.22;76.31
60049;BME280;45925;45.544;6.756;2022-08-18T23:57:29;86969.88;;;12.04;77.60
